Detalii statie BARBIERU PROD [00001CE8]

Toti senzorii

Date Temperatura solului [C]Precipitatii [mm]Voltaj baterie [mV]Leaf Wetness [Min]HC Air temperature [C]HC Relative humidity [%]Punctul de roua [C]
medieminmaxsumaultimatimpmedieminmaxmediemediemin
2018-06-20 10:00:00 23.9 23.7 24.2 0 7158 31.37 30.77 31.84 0 0 0
2018-06-20 11:00:00 24.3 24.1 24.7 0 7246 32.45 31.68 33.48 0 0 0
2018-06-20 12:00:00 25 24.8 25.5 0 7246 33.64 33.01 34.73 0 0 0
2018-06-20 13:00:00 25.8 25.5 26.3 0 7246 34.42 33.79 35.18 0 0 0
2018-06-20 14:00:00 26.7 26.3 27.1 0 7246 34.64 34.11 35.11 0 0 0
2018-06-20 15:00:00 27.4 27.1 27.7 0 7246 34.9 34.36 35.4 0 0 0
2018-06-20 16:00:00 28.1 27.8 28.4 0 7246 34.75 34.24 35.5 0 0 0
2018-06-20 17:00:00 28.5 28.3 28.8 0 7246 32.82 31.21 34.39 0 0 0
2018-06-20 18:00:00 28.9 28.8 29.1 0 7246 30.93 29.77 32.3 0 0 0
2018-06-20 19:00:00 28.9 28.8 29.2 0 7158 30.62 28.09 32.19 0 0 0
2018-06-20 20:00:00 28.8 28.6 29 0 6884 27.39 27.09 27.98 0 0 0
2018-06-20 21:00:00 28.6 28.5 28.8 0 6874 26.35 26.16 26.83 0 0 0
2018-06-20 22:00:00 28.4 28.3 28.7 0 6874 25.63 24.63 26.18 0 0 0
2018-06-20 23:00:00 28.1 28 28.4 0 6874 23.42 23.06 24.15 0 0 0
2018-06-21 00:00:00 27.7 27.7 28 0 6854 22.6 22.39 22.78 0 0 0
2018-06-21 01:00:00 27.4 27.2 27.7 0 6844 22.32 21.85 22.69 0 0 0
2018-06-21 02:00:00 27.2 27 27.4 0 6844 21.5 21.22 21.93 0 0 0
2018-06-21 03:00:00 26.9 26.7 27.1 0 6834 20.87 20.35 21.42 0 0 0
2018-06-21 04:00:00 26.6 26.4 26.9 0 6826 20.42 20.07 21.05 0 0 0
2018-06-21 05:00:00 26.3 26.2 26.6 0 6826 20.06 19.87 20.28 0 0 0
2018-06-21 06:00:00 26.1 26 26.3 0 6894 21.19 19.84 23.74 0 0 0
2018-06-21 07:00:00 25.8 25.6 26 0 6962 24.6 23.92 25.19 0 0 0
2018-06-21 08:00:00 25.6 25.6 25.9 0 7060 26.66 24.77 27.85 0 0 0
2018-06-21 09:00:00 25.6 25.6 25.8 0 7088 29.08 27.86 29.97 0 0 0
2018-06-21 10:00:00 25.8 25.6 26.1 0 7196 30.92 29.73 31.66 0 0 0
2018-06-21 11:00:00 26.2 25.8 26.5 0 7246 31.66 30.84 32.75 0 0 0
2018-06-21 12:00:00 26.8 26.6 27.2 0 7246 32.3 31.86 32.98 0 0 0
2018-06-21 13:00:00 27.5 27.2 28 0 7246 33.11 32.35 34.06 0 0 0
2018-06-21 14:00:00 28.3 28 28.6 0 7246 33.46 32.91 34.14 0 0 0
2018-06-21 15:00:00 28.9 28.6 29.2 0 7246 33.97 33.34 34.68 0 0 0
2018-06-21 16:00:00 29.5 29.3 29.8 0 7246 33.42 33 33.97 0 0 0
2018-06-21 17:00:00 29.9 29.8 30.2 0 7246 33.46 33.11 33.9 0 0 0
2018-06-21 18:00:00 30.1 30 30.2 0 7236 31.8 30.82 32.99 0 0 0
2018-06-21 19:00:00 30.2 30.2 30.4 0 7080 28.51 26.29 30.62 0 0 0
2018-06-21 20:00:00 30.1 30 30.3 0 6894 26.1 25.98 26.25 0 0 0
2018-06-21 21:00:00 29.8 29.7 30.1 0 6884 25.56 24.79 26.02 0 0 0
2018-06-21 22:00:00 29.5 29.4 29.6 0 6874 24.7 23.89 25.2 0 0 0
2018-06-21 23:00:00 29.1 29 29.3 0 6874 23.69 22.88 23.94 0 0 0
2018-06-22 00:00:00 28.7 28.6 29.1 0 6874 24.62 24.05 25 0 0 0
2018-06-22 01:00:00 28.3 28.1 28.7 0 6854 23.86 23.44 24.55 0 0 0
2018-06-22 02:00:00 28 27.8 28.2 0 6854 23.57 23.27 23.75 0 0 0
2018-06-22 03:00:00 27.7 27.5 27.9 0 6854 23.19 22.89 23.56 0 0 0
2018-06-22 04:00:00 27.4 27.3 27.6 0 6834 22.82 22.77 22.91 0 0 0
2018-06-22 05:00:00 27 26.8 27.3 0 6844 22.66 22.53 22.84 0 0 0
2018-06-22 06:00:00 26.8 26.7 27 0 6914 23.46 22.51 24.22 0 0 0
2018-06-22 07:00:00 26.5 26.4 26.8 0 7020 24.6 24.15 25.1 0 0 0
2018-06-22 08:00:00 26.4 26.2 26.5 0 7166 25.37 24.68 25.88 0 0 0
2018-06-22 09:00:00 26.3 26.2 26.5 0 7158 27.21 25.94 29.26 0 0 0